Time;durP1;ratioP1;P1;durP2;ratioP2;P2;SDS_P1;SDS_P2;PMS_P1;PMS_P2;Temp;Humidity;BMP_temperature;BMP_pressure;BME280_temperature;BME280_humidity;BME280_pressure;Samples;Min_cycle;Max_cycle;Signal;HPM_P1;HPM_P2
2023/02/18 00:00:26;;;;;;;20.80;3.33;;;6.10;99.90;;;;;;5040903;28;20028;-61
2023/02/18 00:02:51;;;;;;;19.75;4.63;;;6.10;99.90;;;;;;5043881;28;20131;-61
2023/02/18 00:05:17;;;;;;;18.77;4.47;;;6.10;99.90;;;;;;5040127;28;20037;-60
2023/02/18 00:07:43;;;;;;;24.00;4.15;;;6.10;99.90;;;;;;5046506;28;20036;-60
2023/02/18 00:10:13;;;;;;;15.35;3.35;;;6.10;99.90;;;;;;5040879;28;20021;-61
2023/02/18 00:12:39;;;;;;;22.23;4.43;;;6.10;99.90;;;;;;5041202;28;20029;-60
2023/02/18 00:15:05;;;;;;;18.70;3.72;;;6.10;99.90;;;;;;5040645;28;20419;-60
2023/02/18 00:17:31;;;;;;;19.67;4.53;;;6.10;99.90;;;;;;5046910;28;20025;-60
2023/02/18 00:19:56;;;;;;;22.92;5.35;;;6.10;99.90;;;;;;5035835;28;20041;-59
2023/02/18 00:22:22;;;;;;;21.55;3.95;;;6.20;99.90;;;;;;5040919;28;20030;-60
2023/02/18 00:24:48;;;;;;;17.73;3.70;;;6.10;99.90;;;;;;5044005;28;20119;-58
2023/02/18 00:27:14;;;;;;;18.25;4.10;;;6.10;99.90;;;;;;5039905;28;20144;-59
2023/02/18 00:29:40;;;;;;;16.65;4.03;;;6.10;99.90;;;;;;5061755;28;20037;-60
2023/02/18 00:32:05;;;;;;;19.08;4.50;;;6.10;99.90;;;;;;5042384;28;20066;-59
2023/02/18 00:34:31;;;;;;;17.67;4.28;;;6.10;99.90;;;;;;5039725;28;20037;-60
2023/02/18 00:36:57;;;;;;;17.50;3.40;;;6.10;99.90;;;;;;5036143;28;20028;-59
2023/02/18 00:39:23;;;;;;;25.50;4.90;;;6.10;99.90;;;;;;5041748;28;20017;-59
2023/02/18 00:41:48;;;;;;;19.95;4.38;;;6.10;99.90;;;;;;5043555;28;20032;-57
2023/02/18 00:44:14;;;;;;;17.27;3.90;;;6.00;99.90;;;;;;5043972;28;20025;-59
2023/02/18 00:46:39;;;;;;;22.92;5.18;;;6.00;99.90;;;;;;5042235;28;20029;-60
2023/02/18 00:49:06;;;;;;;17.75;3.63;;;6.00;99.90;;;;;;5041591;28;20067;-58
2023/02/18 00:51:31;;;;;;;20.40;3.90;;;6.00;99.90;;;;;;5036893;28;20506;-60
2023/02/18 00:53:57;;;;;;;18.55;4.65;;;6.00;99.90;;;;;;5042606;28;20161;-56
2023/02/18 00:56:23;;;;;;;18.15;4.18;;;5.90;99.90;;;;;;5038023;28;20025;-60
2023/02/18 00:58:49;;;;;;;15.50;3.38;;;5.90;99.90;;;;;;5034626;28;20120;-59
2023/02/18 01:01:15;;;;;;;12.15;3.47;;;5.90;99.90;;;;;;5039701;28;20037;-58
2023/02/18 01:03:41;;;;;;;25.02;4.15;;;5.90;99.90;;;;;;5042054;28;20152;-59
2023/02/18 01:06:08;;;;;;;16.35;4.25;;;5.90;99.90;;;;;;5044236;28;20037;-60
2023/02/18 01:08:35;;;;;;;19.08;3.00;;;5.90;99.90;;;;;;5038755;28;20025;-60
2023/02/18 01:11:02;;;;;;;17.55;3.50;;;5.90;99.90;;;;;;5043146;28;20586;-60
2023/02/18 01:13:28;;;;;;;19.42;4.35;;;5.90;99.90;;;;;;5041743;28;20030;-60
2023/02/18 01:15:54;;;;;;;15.95;3.55;;;5.90;99.90;;;;;;5043253;28;20446;-59
2023/02/18 01:18:20;;;;;;;20.42;5.85;;;5.90;99.90;;;;;;5041452;28;20108;-59
2023/02/18 01:20:46;;;;;;;23.50;4.78;;;5.80;99.90;;;;;;5042454;28;20100;-59
2023/02/18 01:23:12;;;;;;;14.38;3.13;;;5.80;99.90;;;;;;5042074;28;20095;-59
2023/02/18 01:25:38;;;;;;;18.15;5.50;;;5.80;99.90;;;;;;5041146;28;20033;-58
2023/02/18 01:28:05;;;;;;;15.60;3.28;;;5.80;99.90;;;;;;5042715;28;20033;-60
2023/02/18 01:30:31;;;;;;;22.05;4.53;;;5.80;99.90;;;;;;5037914;28;20041;-58
2023/02/18 01:32:57;;;;;;;18.88;4.53;;;5.70;99.90;;;;;;5039910;28;20079;-58
2023/02/18 01:35:23;;;;;;;26.00;4.25;;;5.70;99.90;;;;;;5038550;28;20029;-59
2023/02/18 01:37:50;;;;;;;20.80;4.35;;;5.70;99.90;;;;;;5039250;28;20107;-60
2023/02/18 01:40:20;;;;;;;17.63;3.90;;;5.70;99.90;;;;;;5040376;28;20064;-61
2023/02/18 01:42:48;;;;;;;24.00;3.78;;;5.70;99.90;;;;;;5034332;28;20547;-60
2023/02/18 01:45:32;;;;;;;12.95;3.90;;;5.60;99.90;;;;;;5040835;28;20067;-59
2023/02/18 01:48:19;;;;;;;11.25;3.08;;;5.60;99.90;;;;;;5030905;28;20580;-61
2023/02/18 01:50:57;;;;;;;;;;;5.60;99.90;;;;;;5039260;28;20099;-60
2023/02/18 01:53:31;;;;;;;19.42;3.67;;;5.50;99.90;;;;;;5035389;28;19909;-61
2023/02/18 01:56:01;;;;;;;14.82;3.78;;;5.50;99.90;;;;;;5033730;28;20020;-60
2023/02/18 01:58:27;;;;;;;20.63;3.42;;;5.50;99.90;;;;;;5047895;28;20397;-60
2023/02/18 02:00:52;;;;;;;22.05;4.88;;;5.50;99.90;;;;;;5034353;28;20033;-59
2023/02/18 02:03:18;;;;;;;19.02;3.95;;;5.50;99.90;;;;;;5034013;28;20029;-59
2023/02/18 02:05:43;;;;;;;14.88;4.05;;;5.50;99.90;;;;;;5029885;28;20112;-60
2023/02/18 02:08:09;;;;;;;20.58;3.22;;;5.50;99.90;;;;;;5037887;28;20487;-59
2023/02/18 02:11:03;;;;;;;8.93;2.85;;;5.40;99.90;;;;;;5037998;28;20380;-60
2023/02/18 02:13:38;;;;;;;13.60;2.88;;;5.50;99.90;;;;;;5038344;28;20018;-57
2023/02/18 02:16:16;;;;;;;17.10;3.53;;;5.40;99.90;;;;;;5041519;28;20569;-58
2023/02/18 02:19:28;;;;;;;21.25;4.38;;;5.40;99.90;;;;;;5038594;28;20029;-61
2023/02/18 02:22:40;;;;;;;18.10;2.53;;;5.40;99.90;;;;;;5027942;28;20048;-60
2023/02/18 02:25:27;;;;;;;12.32;3.22;;;5.40;99.90;;;;;;5031939;28;20033;-60
2023/02/18 02:28:29;;;;;;;18.38;3.35;;;5.40;99.90;;;;;;5035660;28;20544;-60
2023/02/18 02:31:35;;;;;;;15.68;3.30;;;5.40;99.90;;;;;;4993703;28;20191;-60
2023/02/18 02:34:27;;;;;;;16.08;3.88;;;5.40;99.90;;;;;;5031739;28;20029;-58
2023/02/18 02:37:11;;;;;;;24.67;5.10;;;5.40;99.90;;;;;;5023005;28;20025;-58
2023/02/18 02:40:01;;;;;;;24.20;3.67;;;5.40;99.90;;;;;;5037718;28;20128;-61
2023/02/18 02:42:39;;;;;;;20.15;4.22;;;5.40;99.90;;;;;;5039383;28;20040;-59
2023/02/18 02:45:29;;;;;;;27.13;3.90;;;5.40;99.90;;;;;;5034908;28;20025;-59
2023/02/18 02:48:01;;;;;;;14.48;3.63;;;5.40;99.90;;;;;;5033332;28;20060;-55
2023/02/18 02:50:42;;;;;;;15.32;3.33;;;5.40;99.90;;;;;;5034391;28;20083;-59
2023/02/18 02:53:27;;;;;;;20.33;4.45;;;5.40;99.90;;;;;;5040808;28;20029;-58
2023/02/18 02:55:54;;;;;;;16.02;3.65;;;5.40;99.90;;;;;;5041436;28;20025;-59
2023/02/18 02:58:21;;;;;;;14.90;2.90;;;5.50;99.90;;;;;;5054420;28;20037;-58
2023/02/18 03:01:30;;;;;;;15.77;3.67;;;5.50;99.90;;;;;;5036306;28;20440;-58
2023/02/18 03:04:30;;;;;;;13.13;2.22;;;5.50;99.90;;;;;;5031742;28;20036;-60
2023/02/18 03:07:15;;;;;;;12.07;3.03;;;5.50;99.90;;;;;;5035073;28;20122;-60
2023/02/18 03:10:17;;;;;;;12.68;3.38;;;5.50;99.90;;;;;;5043452;28;20036;-60
2023/02/18 03:13:06;;;;;;;11.18;2.72;;;5.50;99.90;;;;;;5038727;28;20033;-58
2023/02/18 03:15:41;;;;;;;12.27;3.20;;;5.50;99.90;;;;;;5039594;28;20451;-59
2023/02/18 03:18:30;;;;;;;14.07;2.88;;;5.50;99.90;;;;;;5040999;28;20686;-57
2023/02/18 03:21:01;;;;;;;10.32;3.22;;;5.50;99.90;;;;;;5031945;28;20017;-58
2023/02/18 03:23:34;;;;;;;13.68;2.47;;;5.50;99.90;;;;;;5040551;28;20025;-59
2023/02/18 03:26:00;;;;;;;11.20;2.25;;;5.50;99.90;;;;;;5032351;28;20025;-58
2023/02/18 03:28:30;;;;;;;13.15;2.40;;;5.50;99.90;;;;;;5040788;28;20053;-58
2023/02/18 03:31:08;;;;;;;12.80;3.20;;;5.60;99.90;;;;;;5040331;28;20472;-57
2023/02/18 03:33:43;;;;;;;16.58;2.97;;;5.60;99.90;;;;;;5037992;28;20025;-60
2023/02/18 03:36:10;;;;;;;18.60;3.42;;;5.60;99.90;;;;;;5030338;28;20484;-57
2023/02/18 03:38:49;;;;;;;9.25;2.45;;;5.60;99.90;;;;;;5044489;28;20474;-60
2023/02/18 03:41:15;;;;;;;15.52;3.10;;;5.60;99.90;;;;;;5037999;28;20223;-59
2023/02/18 03:43:48;;;;;;;10.48;3.20;;;5.70;99.90;;;;;;5041085;28;20037;-60
2023/02/18 03:46:14;;;;;;;13.57;2.33;;;5.70;99.90;;;;;;5038677;28;20029;-61
2023/02/18 03:48:39;;;;;;;11.73;2.67;;;5.70;99.90;;;;;;5039232;28;20084;-61
2023/02/18 03:51:05;;;;;;;15.63;3.67;;;5.70;99.90;;;;;;5038788;28;20116;-61
2023/02/18 03:53:30;;;;;;;8.73;2.28;;;5.80;99.90;;;;;;5037800;28;20064;-60
2023/02/18 03:55:56;;;;;;;16.63;3.08;;;5.80;99.90;;;;;;5042760;28;20053;-61
2023/02/18 03:58:21;;;;;;;7.63;2.08;;;5.80;99.90;;;;;;5034034;28;20025;-60
2023/02/18 04:00:47;;;;;;;11.95;2.33;;;5.90;99.90;;;;;;5043508;28;20029;-58
2023/02/18 04:03:12;;;;;;;14.65;2.03;;;5.90;99.90;;;;;;5038154;28;20037;-60
2023/02/18 04:05:38;;;;;;;6.00;1.52;;;5.90;99.90;;;;;;5037479;28;20033;-59
2023/02/18 04:08:04;;;;;;;9.43;3.50;;;5.90;99.90;;;;;;5039745;28;20025;-60
2023/02/18 04:10:30;;;;;;;11.63;2.60;;;5.90;99.90;;;;;;5035434;28;20083;-61
2023/02/18 04:12:55;;;;;;;11.93;2.00;;;5.90;99.90;;;;;;5041319;28;20442;-56
2023/02/18 04:15:21;;;;;;;8.60;2.03;;;5.90;99.90;;;;;;5036941;28;20534;-59
2023/02/18 04:17:46;;;;;;;11.88;1.65;;;5.90;99.90;;;;;;5044180;28;20442;-59
2023/02/18 04:20:12;;;;;;;7.53;1.75;;;5.80;99.90;;;;;;5036658;28;20025;-60
2023/02/18 04:22:38;;;;;;;13.10;2.45;;;5.90;99.90;;;;;;5038758;28;20052;-62
2023/02/18 04:25:04;;;;;;;12.43;2.72;;;5.80;99.90;;;;;;5029133;28;20033;-60
2023/02/18 04:27:29;;;;;;;11.98;2.15;;;5.80;99.90;;;;;;5036527;28;20030;-61
2023/02/18 04:29:55;;;;;;;6.45;2.00;;;5.80;99.90;;;;;;5045606;28;20049;-60
2023/02/18 04:32:21;;;;;;;11.77;2.22;;;5.70;99.90;;;;;;5037548;28;20044;-60
2023/02/18 04:34:46;;;;;;;14.93;3.28;;;5.70;99.90;;;;;;5042119;28;20036;-60
2023/02/18 04:37:12;;;;;;;8.88;2.53;;;5.70;99.90;;;;;;5042976;28;20033;-61
2023/02/18 04:39:37;;;;;;;9.35;1.73;;;5.60;99.90;;;;;;5037649;28;20052;-61
2023/02/18 04:42:07;;;;;;;12.15;1.95;;;5.60;99.90;;;;;;5037692;28;20036;-61
2023/02/18 04:44:36;;;;;;;12.07;2.47;;;5.50;99.90;;;;;;5041191;28;20029;-61
2023/02/18 04:47:02;;;;;;;7.30;1.58;;;5.50;99.90;;;;;;5041339;28;20032;-60
2023/02/18 04:49:28;;;;;;;7.70;1.85;;;5.50;99.90;;;;;;5038049;28;20484;-58
2023/02/18 04:51:53;;;;;;;10.18;2.53;;;5.40;99.90;;;;;;5043380;28;20055;-60
2023/02/18 04:54:19;;;;;;;4.88;1.73;;;5.40;99.90;;;;;;5042494;28;20086;-61
2023/02/18 04:56:45;;;;;;;8.65;1.65;;;5.40;99.90;;;;;;5043673;28;20095;-60
2023/02/18 04:59:10;;;;;;;19.38;2.70;;;5.40;99.90;;;;;;5035804;28;20048;-59
2023/02/18 05:01:36;;;;;;;4.78;1.45;;;5.40;99.90;;;;;;5040933;28;20036;-60
2023/02/18 05:04:02;;;;;;;7.63;1.52;;;5.40;99.90;;;;;;5043205;28;20037;-61
2023/02/18 05:06:27;;;;;;;5.90;1.67;;;5.40;99.90;;;;;;5036784;28;20271;-60
2023/02/18 05:08:53;;;;;;;9.98;1.73;;;5.50;99.90;;;;;;5045716;28;20037;-59
2023/02/18 05:11:18;;;;;;;8.68;1.70;;;5.40;99.90;;;;;;5042749;28;20140;-61
2023/02/18 05:13:44;;;;;;;9.45;1.88;;;5.40;99.90;;;;;;5039311;28;20037;-59
2023/02/18 05:16:10;;;;;;;9.25;1.90;;;5.40;99.90;;;;;;5043065;28;20029;-61
2023/02/18 05:18:35;;;;;;;6.50;1.55;;;5.40;99.90;;;;;;5047143;28;20417;-61
2023/02/18 05:21:01;;;;;;;9.05;2.20;;;5.40;99.90;;;;;;5042392;28;20033;-61
2023/02/18 05:23:26;;;;;;;6.43;1.33;;;5.40;99.90;;;;;;5036102;28;20373;-61
2023/02/18 05:25:53;;;;;;;9.05;1.95;;;5.40;99.90;;;;;;5042585;28;20472;-59
2023/02/18 05:28:19;;;;;;;11.45;1.63;;;5.40;99.90;;;;;;5042093;28;20511;-61
2023/02/18 05:30:44;;;;;;;7.65;1.90;;;5.40;99.90;;;;;;5045108;28;20115;-60
2023/02/18 05:33:10;;;;;;;5.80;1.58;;;5.40;99.90;;;;;;5042371;28;20037;-61
2023/02/18 05:35:35;;;;;;;6.45;1.90;;;5.40;99.90;;;;;;5040900;28;20040;-61
2023/02/18 05:38:01;;;;;;;8.05;2.45;;;5.40;99.90;;;;;;5042420;28;20036;-59
2023/02/18 05:40:26;;;;;;;6.93;1.48;;;5.40;99.90;;;;;;5043494;28;20026;-60
2023/02/18 05:42:52;;;;;;;8.25;1.48;;;5.40;99.90;;;;;;5042368;28;20025;-62
2023/02/18 05:45:17;;;;;;;14.63;2.15;;;5.40;99.90;;;;;;5042066;28;20056;-62
2023/02/18 05:47:43;;;;;;;9.15;2.72;;;5.40;99.90;;;;;;5039638;28;20479;-62
2023/02/18 05:50:09;;;;;;;11.55;1.65;;;5.30;99.90;;;;;;5040390;28;20032;-62
2023/02/18 05:52:34;;;;;;;9.10;1.90;;;5.30;99.90;;;;;;5036611;28;20107;-61
2023/02/18 05:55:00;;;;;;;7.80;2.20;;;5.30;99.90;;;;;;5038602;28;20040;-61
2023/02/18 05:57:25;;;;;;;9.20;2.05;;;5.30;99.90;;;;;;5041654;28;20033;-61
2023/02/18 05:59:51;;;;;;;7.10;1.88;;;5.30;99.90;;;;;;5041251;28;20041;-61
2023/02/18 06:02:17;;;;;;;3.28;1.42;;;5.30;99.90;;;;;;5035467;28;20033;-61
2023/02/18 06:04:42;;;;;;;8.55;2.05;;;5.30;99.90;;;;;;5039206;28;20418;-59
2023/02/18 06:07:08;;;;;;;10.30;2.47;;;5.30;99.90;;;;;;5055087;28;20075;-61
2023/02/18 06:09:33;;;;;;;6.53;1.55;;;5.30;99.90;;;;;;5041681;28;20040;-62
2023/02/18 06:11:59;;;;;;;5.70;1.80;;;5.30;99.90;;;;;;5041886;28;20078;-60
2023/02/18 06:14:24;;;;;;;6.22;1.98;;;5.30;99.90;;;;;;5041867;28;20391;-60
2023/02/18 06:16:50;;;;;;;13.57;2.45;;;5.30;99.90;;;;;;5039373;28;20464;-61
2023/02/18 06:19:15;;;;;;;8.38;1.42;;;5.30;99.90;;;;;;5039497;28;20116;-60
2023/02/18 06:21:41;;;;;;;7.38;1.65;;;5.20;99.90;;;;;;5040927;28;20091;-61
2023/02/18 06:24:06;;;;;;;9.20;1.98;;;5.20;99.90;;;;;;5042166;28;20028;-61
2023/02/18 06:26:33;;;;;;;10.85;2.00;;;5.20;99.90;;;;;;5041085;28;20035;-61
2023/02/18 06:28:58;;;;;;;7.78;2.25;;;5.20;99.90;;;;;;5034402;28;20099;-61
2023/02/18 06:31:24;;;;;;;6.25;1.73;;;5.20;99.90;;;;;;5041808;28;20111;-61
2023/02/18 06:33:49;;;;;;;5.93;1.98;;;5.20;99.90;;;;;;5035970;28;20029;-59
2023/02/18 06:36:15;;;;;;;10.93;2.22;;;5.10;99.90;;;;;;5034461;28;20029;-61
2023/02/18 06:38:43;;;;;;;8.27;2.13;;;5.10;99.90;;;;;;5044535;28;20029;-60
2023/02/18 06:41:09;;;;;;;7.53;1.95;;;5.10;99.90;;;;;;5036068;28;20068;-59
2023/02/18 06:43:35;;;;;;;9.85;1.77;;;5.10;99.90;;;;;;5045534;28;20102;-60
2023/02/18 06:46:00;;;;;;;6.53;1.92;;;5.10;99.90;;;;;;5035933;28;20483;-61
2023/02/18 06:48:26;;;;;;;7.88;2.05;;;5.10;99.90;;;;;;5036090;28;20034;-61
2023/02/18 06:50:52;;;;;;;11.20;2.20;;;5.10;99.90;;;;;;5042690;28;20032;-60
2023/02/18 06:53:17;;;;;;;7.68;1.92;;;5.10;99.90;;;;;;5037460;28;20443;-61
2023/02/18 06:55:44;;;;;;;6.95;2.03;;;5.10;99.90;;;;;;5038962;28;20032;-61
2023/02/18 06:58:10;;;;;;;5.72;1.80;;;5.10;99.90;;;;;;5033058;28;20116;-61
2023/02/18 07:00:36;;;;;;;4.22;1.70;;;5.10;99.90;;;;;;5040731;28;20068;-60
2023/02/18 07:03:02;;;;;;;8.40;1.27;;;5.10;99.90;;;;;;5036693;28;20464;-60
2023/02/18 07:05:28;;;;;;;3.60;1.05;;;5.10;99.90;;;;;;5036654;28;20095;-59
2023/02/18 07:07:54;;;;;;;5.93;1.33;;;5.10;99.90;;;;;;5036892;28;20475;-61
2023/02/18 07:10:19;;;;;;;4.25;1.42;;;5.00;99.90;;;;;;5037077;28;20053;-60
2023/02/18 07:12:45;;;;;;;7.18;1.27;;;5.00;99.90;;;;;;5040135;28;20044;-60
2023/02/18 07:15:11;;;;;;;6.05;1.52;;;5.00;99.90;;;;;;5035927;28;20028;-61
2023/02/18 07:17:36;;;;;;;3.70;1.60;;;5.00;99.90;;;;;;5033506;28;20309;-59
2023/02/18 07:20:03;;;;;;;4.68;1.20;;;5.00;99.90;;;;;;5039706;28;20040;-60
2023/02/18 07:22:29;;;;;;;2.30;1.08;;;5.00;99.90;;;;;;5037474;28;20533;-60
2023/02/18 07:24:55;;;;;;;6.50;1.25;;;5.10;99.90;;;;;;5044345;28;20045;-60
2023/02/18 07:27:21;;;;;;;4.88;1.40;;;5.10;99.90;;;;;;5038607;28;20490;-59
2023/02/18 07:29:46;;;;;;;10.00;1.75;;;5.10;99.90;;;;;;5038859;28;20029;-60
2023/02/18 07:32:14;;;;;;;5.28;1.35;;;5.10;99.90;;;;;;5041989;28;20442;-57
2023/02/18 07:34:39;;;;;;;6.22;1.48;;;5.10;99.90;;;;;;5054341;28;20034;-60
2023/02/18 07:37:08;;;;;;;2.90;1.40;;;5.10;99.90;;;;;;5040381;28;20032;-59
2023/02/18 07:39:35;;;;;;;4.75;1.77;;;5.10;99.90;;;;;;5043387;28;20052;-61
2023/02/18 07:42:04;;;;;;;9.52;2.08;;;5.10;99.90;;;;;;5040980;28;20056;-61
2023/02/18 07:44:29;;;;;;;4.25;1.10;;;5.10;99.90;;;;;;5039755;28;20061;-61
2023/02/18 07:46:55;;;;;;;4.68;1.35;;;5.10;99.90;;;;;;5040123;28;20044;-61
2023/02/18 07:49:21;;;;;;;7.97;1.52;;;5.10;99.90;;;;;;5038291;28;20601;-61
2023/02/18 07:51:47;;;;;;;5.80;1.33;;;5.10;99.90;;;;;;5039905;28;20061;-61
2023/02/18 07:54:13;;;;;;;4.80;1.30;;;5.10;99.90;;;;;;5039332;28;20499;-60
2023/02/18 07:56:39;;;;;;;4.47;1.63;;;5.10;99.90;;;;;;5035470;28;20038;-61
2023/02/18 07:59:05;;;;;;;5.85;1.60;;;5.10;99.90;;;;;;5051368;28;20025;-60
2023/02/18 08:01:31;;;;;;;7.82;1.85;;;5.10;99.90;;;;;;5042528;28;20032;-59
2023/02/18 08:03:56;;;;;;;6.68;1.25;;;5.10;99.90;;;;;;5044514;28;20479;-60
2023/02/18 08:06:29;;;;;;;6.43;1.50;;;5.10;99.90;;;;;;5038521;28;20032;-59
2023/02/18 08:08:55;;;;;;;3.30;1.20;;;5.10;99.90;;;;;;5031587;28;20407;-60
2023/02/18 08:11:21;;;;;;;7.07;1.40;;;5.20;99.90;;;;;;5035428;28;20029;-58
2023/02/18 08:13:47;;;;;;;7.90;2.15;;;5.20;99.90;;;;;;5039576;28;20036;-60
2023/02/18 08:16:13;;;;;;;5.65;2.10;;;5.20;99.90;;;;;;5042910;28;20025;-60
2023/02/18 08:18:38;;;;;;;5.65;1.58;;;5.20;99.90;;;;;;5043504;28;20400;-60
2023/02/18 08:21:04;;;;;;;4.18;1.73;;;5.20;99.90;;;;;;5043802;28;20036;-60
2023/02/18 08:23:30;;;;;;;5.80;2.22;;;5.20;99.90;;;;;;5041589;28;20035;-60
2023/02/18 08:25:55;;;;;;;6.10;1.60;;;5.30;99.90;;;;;;5044238;28;20024;-58
2023/02/18 08:28:22;;;;;;;5.20;1.65;;;5.30;99.90;;;;;;5043044;28;20052;-59
2023/02/18 08:30:51;;;;;;;3.33;1.67;;;5.30;99.90;;;;;;5042912;28;20039;-60
2023/02/18 08:33:17;;;;;;;6.20;1.55;;;5.30;99.90;;;;;;5044155;28;20096;-59
2023/02/18 08:35:44;;;;;;;4.47;2.00;;;5.30;99.90;;;;;;5040113;28;20024;-59
2023/02/18 08:38:09;;;;;;;7.55;1.48;;;5.40;99.90;;;;;;5045009;28;20214;-58
2023/02/18 08:40:35;;;;;;;4.47;2.38;;;5.40;99.90;;;;;;5041983;28;20028;-56
2023/02/18 08:43:01;;;;;;;5.65;2.10;;;5.40;99.90;;;;;;5043524;28;20025;-59
2023/02/18 08:45:26;;;;;;;6.40;2.05;;;5.40;99.90;;;;;;5045556;28;20029;-60
2023/02/18 08:47:52;;;;;;;4.40;1.85;;;5.40;99.90;;;;;;5037225;28;20022;-59
2023/02/18 08:50:19;;;;;;;3.97;1.65;;;5.40;99.90;;;;;;5039571;28;20078;-59
2023/02/18 08:52:45;;;;;;;4.93;1.60;;;5.50;99.90;;;;;;5043145;28;20029;-60
2023/02/18 08:55:11;;;;;;;8.32;2.40;;;5.50;99.90;;;;;;5038815;28;20029;-60
2023/02/18 08:57:36;;;;;;;7.60;2.00;;;5.50;99.90;;;;;;5041623;28;20468;-59
2023/02/18 09:00:02;;;;;;;3.83;1.65;;;5.50;99.90;;;;;;5036438;28;20043;-60
2023/02/18 09:02:28;;;;;;;5.38;1.70;;;5.50;99.90;;;;;;5041855;28;20033;-59
2023/02/18 09:04:54;;;;;;;5.78;2.00;;;5.50;99.90;;;;;;5039558;28;20032;-60
2023/02/18 09:07:19;;;;;;;11.15;2.30;;;5.60;99.90;;;;;;5045037;28;20029;-56
2023/02/18 09:09:45;;;;;;;5.32;1.92;;;5.60;99.90;;;;;;5039669;28;20037;-60
2023/02/18 09:12:10;;;;;;;7.78;2.35;;;5.60;99.90;;;;;;5043782;28;20564;-58
2023/02/18 09:14:36;;;;;;;4.43;1.75;;;5.60;99.90;;;;;;5041184;28;20033;-58
2023/02/18 09:17:01;;;;;;;3.80;1.95;;;5.60;99.90;;;;;;5044143;28;20479;-60
2023/02/18 09:19:27;;;;;;;8.38;2.45;;;5.70;99.90;;;;;;5042265;28;20472;-59
2023/02/18 09:21:52;;;;;;;5.50;1.92;;;5.70;99.90;;;;;;5039737;28;20021;-58
2023/02/18 09:24:19;;;;;;;7.57;4.40;;;5.70;99.90;;;;;;5043241;28;20039;-59
2023/02/18 09:26:45;;;;;;;7.25;4.07;;;5.60;99.90;;;;;;5039981;28;20029;-58
2023/02/18 09:29:11;;;;;;;9.05;4.63;;;5.60;99.90;;;;;;5041814;28;20037;-59
2023/02/18 09:31:38;;;;;;;9.00;3.90;;;5.60;99.90;;;;;;5040932;28;20384;-59
2023/02/18 09:34:05;;;;;;;6.20;2.75;;;5.60;99.90;;;;;;5038787;28;20029;-60
2023/02/18 09:36:31;;;;;;;7.15;3.33;;;5.60;99.90;;;;;;5055069;28;20021;-60
2023/02/18 09:38:57;;;;;;;5.93;3.42;;;5.60;99.90;;;;;;5045520;28;20048;-61
2023/02/18 09:41:28;;;;;;;4.90;2.40;;;5.60;99.90;;;;;;5039168;28;20036;-60
2023/02/18 09:43:59;;;;;;;6.28;1.77;;;5.60;99.90;;;;;;5032741;28;20024;-60
2023/02/18 09:46:33;;;;;;;5.63;2.08;;;5.70;99.90;;;;;;5039024;28;20071;-60
2023/02/18 09:49:03;;;;;;;6.30;1.80;;;5.70;99.90;;;;;;5042427;28;20466;-60
2023/02/18 09:51:28;;;;;;;4.82;2.00;;;5.70;99.90;;;;;;5042026;28;20041;-59
2023/02/18 09:53:54;;;;;;;4.05;1.73;;;5.70;99.90;;;;;;5042688;28;20021;-60
2023/02/18 09:56:27;;;;;;;5.32;2.10;;;5.70;99.90;;;;;;5038369;28;20025;-59
2023/02/18 09:58:54;;;;;;;5.88;2.22;;;5.70;99.90;;;;;;5036587;28;20512;-61
2023/02/18 10:01:47;;;;;;;2.47;1.65;;;5.80;99.90;;;;;;5039799;28;20159;-60
2023/02/18 10:04:23;;;;;;;3.47;1.75;;;5.80;99.90;;;;;;5037420;28;20055;-60
2023/02/18 10:06:50;;;;;;;;;;;5.80;99.90;;;;;;5040401;28;20021;-58
2023/02/18 10:09:20;;;;;;;;;;;5.80;99.90;;;;;;5042185;28;19912;-60
2023/02/18 10:11:53;;;;;;;5.38;2.00;;;5.80;99.90;;;;;;5035601;28;20374;-60
2023/02/18 10:14:20;;;;;;;4.70;2.33;;;5.70;99.90;;;;;;5042005;28;20044;-59
2023/02/18 10:16:48;;;;;;;6.55;3.03;;;5.70;99.90;;;;;;5041204;28;20025;-60
2023/02/18 10:19:28;;;;;;;6.13;4.55;;;5.70;99.90;;;;;;5041662;28;20107;-60
2023/02/18 10:21:54;;;;;;;6.55;3.47;;;5.70;99.90;;;;;;5034865;28;20109;-60
2023/02/18 10:24:36;;;;;;;6.13;2.75;;;5.70;99.90;;;;;;5042248;28;20042;-60
2023/02/18 10:27:05;;;;;;;4.15;2.88;;;5.80;99.90;;;;;;5036180;28;20060;-60
2023/02/18 10:29:31;;;;;;;7.28;3.53;;;5.80;99.90;;;;;;5045044;28;20044;-60
2023/02/18 10:32:10;;;;;;;3.88;3.40;;;5.70;99.90;;;;;;5037782;28;20140;-61
2023/02/18 10:34:44;;;;;;;6.38;3.47;;;5.70;99.90;;;;;;5037611;28;20032;-61
2023/02/18 10:37:38;;;;;;;3.25;2.95;;;5.70;99.90;;;;;;5039110;28;20031;-60
2023/02/18 10:40:23;;;;;;;7.28;3.50;;;5.70;99.90;;;;;;5038819;28;20032;-60
2023/02/18 10:42:58;;;;;;;4.45;3.35;;;5.80;99.90;;;;;;5036455;28;20564;-59
2023/02/18 10:45:37;;;;;;;7.45;4.82;;;5.80;99.90;;;;;;5041329;28;20024;-59
2023/02/18 10:48:40;;;;;;;5.88;4.20;;;5.90;99.90;;;;;;5032526;28;20526;-60
2023/02/18 10:51:15;;;;;;;5.50;3.72;;;6.00;99.90;;;;;;5032789;28;20122;-60
2023/02/18 10:53:44;;;;;;;5.15;4.05;;;6.00;99.90;;;;;;5040103;28;20449;-60
2023/02/18 10:56:34;;;;;;;4.90;3.55;;;6.00;99.90;;;;;;5041731;28;20052;-60
2023/02/18 10:59:08;;;;;;;5.38;4.30;;;6.10;99.90;;;;;;5022081;28;20045;-60
2023/02/18 11:01:34;;;;;;;4.65;3.42;;;6.10;99.90;;;;;;5038387;28;20029;-60
2023/02/18 11:04:17;;;;;;;5.90;4.03;;;6.10;99.90;;;;;;5041160;28;20506;-58
2023/02/18 11:06:47;;;;;;;3.75;3.33;;;6.20;99.90;;;;;;5038635;28;20029;-60
2023/02/18 11:09:40;;;;;;;4.72;3.50;;;6.20;99.90;;;;;;5035264;28;20033;-59
2023/02/18 11:12:40;;;;;;;6.32;4.38;;;6.20;99.90;;;;;;5050980;28;20091;-60
2023/02/18 11:15:17;;;;;;;5.15;3.83;;;6.30;99.90;;;;;;5029804;28;20029;-59
2023/02/18 11:17:46;;;;;;;5.53;4.32;;;6.30;99.90;;;;;;5045162;28;20029;-59
2023/02/18 11:20:21;;;;;;;5.22;3.90;;;6.30;99.90;;;;;;5032845;28;20060;-59
2023/02/18 11:22:47;;;;;;;5.78;4.50;;;6.30;99.90;;;;;;5037038;28;20033;-60
2023/02/18 11:25:34;;;;;;;7.47;4.57;;;6.30;99.90;;;;;;5040238;28;20025;-61
2023/02/18 11:28:01;;;;;;;;;;;6.30;99.90;;;;;;5031340;28;20036;-61
2023/02/18 11:30:36;;;;;;;;;;;6.40;99.90;;;;;;5039627;28;19905;-60
2023/02/18 11:33:30;;;;;;;6.13;4.47;;;6.40;99.90;;;;;;5039900;28;19943;-61
2023/02/18 11:35:57;;;;;;;5.35;4.38;;;6.50;99.90;;;;;;5037045;28;20116;-62
2023/02/18 11:38:32;;;;;;;7.40;5.25;;;6.50;99.90;;;;;;5037438;28;20029;-62
2023/02/18 11:41:19;;;;;;;5.65;5.13;;;6.50;99.90;;;;;;5040946;28;20038;-62
2023/02/18 11:43:48;;;;;;;7.10;5.20;;;6.50;99.90;;;;;;5040552;28;20399;-61
2023/02/18 11:46:20;;;;;;;5.95;5.13;;;6.50;99.90;;;;;;5041965;28;20032;-61
2023/02/18 11:48:46;;;;;;;6.35;5.18;;;6.60;99.90;;;;;;5042359;28;20021;-62
2023/02/18 11:51:17;;;;;;;6.32;5.80;;;6.60;99.90;;;;;;5044258;28;21577;-61
2023/02/18 11:53:59;;;;;;;6.63;4.78;;;6.60;99.90;;;;;;5039304;28;20033;-61
2023/02/18 11:56:30;;;;;;;5.57;4.97;;;6.70;99.90;;;;;;5043371;28;20032;-61
2023/02/18 11:58:57;;;;;;;6.32;5.63;;;6.80;99.90;;;;;;5040885;28;20554;-61
2023/02/18 12:01:46;;;;;;;6.50;5.22;;;6.80;99.90;;;;;;5043962;28;20576;-61
2023/02/18 12:04:36;;;;;;;6.53;4.55;;;6.80;99.90;;;;;;5042406;28;20051;-60
2023/02/18 12:07:23;;;;;;;3.97;3.58;;;6.80;99.90;;;;;;5033684;28;20044;-60
2023/02/18 12:09:51;;;;;;;5.28;3.42;;;6.90;99.90;;;;;;5044031;28;20029;-60
2023/02/18 12:12:27;;;;;;;3.30;2.97;;;6.90;99.90;;;;;;5042356;28;20029;-59
2023/02/18 12:14:54;;;;;;;2.88;2.00;;;7.10;99.90;;;;;;5036475;28;20507;-60
2023/02/18 12:17:49;;;;;;;3.83;2.00;;;7.20;99.90;;;;;;5043105;28;20426;-60
2023/02/18 12:20:50;;;;;;;1.77;1.45;;;7.30;99.90;;;;;;5038413;28;20052;-61
2023/02/18 12:23:28;;;;;;;1.52;1.40;;;7.40;99.90;;;;;;5030699;28;20037;-61
2023/02/18 12:26:17;;;;;;;1.75;1.45;;;7.50;99.90;;;;;;5037794;28;20036;-60
2023/02/18 12:28:57;;;;;;;2.80;1.23;;;7.60;99.90;;;;;;5037164;28;20044;-60
2023/02/18 12:31:25;;;;;;;7.97;1.65;;;7.80;99.90;;;;;;5043768;28;20044;-60
2023/02/18 12:34:09;;;;;;;9.82;2.03;;;8.00;99.90;;;;;;5040540;28;20040;-61
2023/02/18 12:37:04;;;;;;;5.65;1.80;;;8.20;99.90;;;;;;5040816;28;20021;-61
2023/02/18 12:39:49;;;;;;;7.55;2.00;;;8.20;99.90;;;;;;5041882;28;20032;-61
2023/02/18 12:42:59;;;;;;;13.98;2.83;;;8.30;99.90;;;;;;5035751;28;20036;-61
2023/02/18 12:45:40;;;;;;;10.43;2.35;;;8.30;99.90;;;;;;5029711;28;20442;-62
2023/02/18 12:48:24;;;;;;;6.40;2.33;;;8.40;99.90;;;;;;5031439;28;20546;-60
2023/02/18 12:51:03;;;;;;;10.73;2.45;;;8.40;99.90;;;;;;5039644;28;20021;-62
2023/02/18 12:53:49;;;;;;;7.65;2.63;;;8.40;99.90;;;;;;5037744;28;20029;-60
2023/02/18 12:56:39;;;;;;;9.20;2.08;;;8.40;99.90;;;;;;5043430;28;20032;-61
2023/02/18 12:59:39;;;;;;;6.18;2.05;;;8.40;99.90;;;;;;5032840;28;20522;-59
2023/02/18 13:02:10;;;;;;;12.50;2.80;;;8.40;99.90;;;;;;5036150;28;20025;-58
2023/02/18 13:05:02;;;;;;;6.65;2.33;;;8.40;99.90;;;;;;5041551;28;20040;-61
2023/02/18 13:07:48;;;;;;;9.65;3.15;;;8.40;99.90;;;;;;5035274;28;20026;-60
2023/02/18 13:10:45;;;;;;;11.90;2.13;;;8.30;99.90;;;;;;5039337;28;20145;-61
2023/02/18 13:13:17;;;;;;;9.75;2.60;;;8.30;99.90;;;;;;5038819;28;20132;-60
2023/02/18 13:15:49;;;;;;;12.65;4.05;;;8.20;99.90;;;;;;5041980;28;20035;-62